sensor_id;sensor_type;location;lat;lon;timestamp;pressure;altitude;pressure_sealevel;temperature
71960;BMP280;59832;51.146;14.024;2023-05-02T00:01:46;98132.66;;;12.36
71960;BMP280;59832;51.146;14.024;2023-05-02T00:04:12;98124.63;;;12.34
71960;BMP280;59832;51.146;14.024;2023-05-02T00:06:39;98129.34;;;12.32
71960;BMP280;59832;51.146;14.024;2023-05-02T00:09:08;98118.09;;;12.37
71960;BMP280;59832;51.146;14.024;2023-05-02T00:11:34;98131.56;;;12.34
71960;BMP280;59832;51.146;14.024;2023-05-02T00:14:00;98127.88;;;12.31
71960;BMP280;59832;51.146;14.024;2023-05-02T00:16:27;98123.47;;;12.28
71960;BMP280;59832;51.146;14.024;2023-05-02T00:18:53;98126.38;;;12.26
71960;BMP280;59832;51.146;14.024;2023-05-02T00:21:20;98121.63;;;12.25
71960;BMP280;59832;51.146;14.024;2023-05-02T00:23:46;98128.53;;;12.21
71960;BMP280;59832;51.146;14.024;2023-05-02T00:26:13;98127.81;;;12.24
71960;BMP280;59832;51.146;14.024;2023-05-02T00:28:39;98122.72;;;12.24
71960;BMP280;59832;51.146;14.024;2023-05-02T00:31:05;98128.19;;;12.22
71960;BMP280;59832;51.146;14.024;2023-05-02T00:33:32;98134.38;;;12.21
71960;BMP280;59832;51.146;14.024;2023-05-02T00:35:58;98130.34;;;12.20
71960;BMP280;59832;51.146;14.024;2023-05-02T00:38:25;98134.31;;;12.18
71960;BMP280;59832;51.146;14.024;2023-05-02T00:40:51;98131.09;;;12.21
71960;BMP280;59832;51.146;14.024;2023-05-02T00:43:18;98133.59;;;12.17
71960;BMP280;59832;51.146;14.024;2023-05-02T00:45:45;98137.97;;;12.17
71960;BMP280;59832;51.146;14.024;2023-05-02T00:48:12;98129.22;;;12.18
71960;BMP280;59832;51.146;14.024;2023-05-02T00:50:40;98136.88;;;12.14
71960;BMP280;59832;51.146;14.024;2023-05-02T00:53:09;98135.34;;;12.10
71960;BMP280;59832;51.146;14.024;2023-05-02T00:55:36;98133.50;;;12.07
71960;BMP280;59832;51.146;14.024;2023-05-02T00:58:13;98136.41;;;12.05
71960;BMP280;59832;51.146;14.024;2023-05-02T01:03:59;98137.47;;;12.04
71960;BMP280;59832;51.146;14.024;2023-05-02T01:06:56;98130.91;;;12.00
71960;BMP280;59832;51.146;14.024;2023-05-02T01:12:57;98134.13;;;11.97
71960;BMP280;59832;51.146;14.024;2023-05-02T01:15:25;98148.31;;;11.94
71960;BMP280;59832;51.146;14.024;2023-05-02T01:17:53;98144.31;;;11.93
71960;BMP280;59832;51.146;14.024;2023-05-02T01:20:23;98146.47;;;11.95
71960;BMP280;59832;51.146;14.024;2023-05-02T01:22:53;98136.28;;;11.91
71960;BMP280;59832;51.146;14.024;2023-05-02T01:28:12;98128.22;;;11.89
71960;BMP280;59832;51.146;14.024;2023-05-02T01:30:43;98138.84;;;11.91
71960;BMP280;59832;51.146;14.024;2023-05-02T01:33:13;98135.53;;;11.91
71960;BMP280;59832;51.146;14.024;2023-05-02T01:35:42;98135.88;;;11.89
71960;BMP280;59832;51.146;14.024;2023-05-02T01:38:13;98130.41;;;11.87
71960;BMP280;59832;51.146;14.024;2023-05-02T01:40:43;98133.34;;;11.89
71960;BMP280;59832;51.146;14.024;2023-05-02T01:43:14;98137.31;;;11.87
71960;BMP280;59832;51.146;14.024;2023-05-02T01:45:43;98134.78;;;11.87
71960;BMP280;59832;51.146;14.024;2023-05-02T01:48:11;98131.84;;;11.88
71960;BMP280;59832;51.146;14.024;2023-05-02T01:50:40;98130.41;;;11.87
71960;BMP280;59832;51.146;14.024;2023-05-02T01:53:08;98126.00;;;11.84
71960;BMP280;59832;51.146;14.024;2023-05-02T01:55:41;98129.97;;;11.81
71960;BMP280;59832;51.146;14.024;2023-05-02T01:58:09;98135.50;;;11.87
71960;BMP280;59832;51.146;14.024;2023-05-02T02:00:37;98132.53;;;11.81
71960;BMP280;59832;51.146;14.024;2023-05-02T02:03:05;98132.84;;;11.76
71960;BMP280;59832;51.146;14.024;2023-05-02T02:05:33;98133.91;;;11.75
71960;BMP280;59832;51.146;14.024;2023-05-02T02:08:00;98136.47;;;11.75
71960;BMP280;59832;51.146;14.024;2023-05-02T02:10:28;98132.47;;;11.74
71960;BMP280;59832;51.146;14.024;2023-05-02T02:13:06;98137.88;;;11.69
71960;BMP280;59832;51.146;14.024;2023-05-02T02:15:34;98138.94;;;11.68
71960;BMP280;59832;51.146;14.024;2023-05-02T02:18:09;98136.03;;;11.70
71960;BMP280;59832;51.146;14.024;2023-05-02T02:20:37;98147.66;;;11.67
71960;BMP280;59832;51.146;14.024;2023-05-02T02:23:09;98149.13;;;11.65
71960;BMP280;59832;51.146;14.024;2023-05-02T02:25:36;98146.56;;;11.65
71960;BMP280;59832;51.146;14.024;2023-05-02T02:28:03;98157.13;;;11.67
71960;BMP280;59832;51.146;14.024;2023-05-02T02:30:29;98146.50;;;11.61
71960;BMP280;59832;51.146;14.024;2023-05-02T02:32:56;98154.91;;;11.62
71960;BMP280;59832;51.146;14.024;2023-05-02T02:35:25;98157.09;;;11.63
71960;BMP280;59832;51.146;14.024;2023-05-02T02:40:58;98157.03;;;11.60
71960;BMP280;59832;51.146;14.024;2023-05-02T02:43:47;98155.97;;;11.61
71960;BMP280;59832;51.146;14.024;2023-05-02T02:46:36;98159.94;;;11.58
71960;BMP280;59832;51.146;14.024;2023-05-02T02:49:26;98165.75;;;11.55
71960;BMP280;59832;51.146;14.024;2023-05-02T02:52:16;98170.84;;;11.59
71960;BMP280;59832;51.146;14.024;2023-05-02T02:54:46;98183.19;;;11.53
71960;BMP280;59832;51.146;14.024;2023-05-02T02:57:17;98179.16;;;11.52
71960;BMP280;59832;51.146;14.024;2023-05-02T03:00:01;98190.81;;;11.50
71960;BMP280;59832;51.146;14.024;2023-05-02T03:02:31;98181.63;;;11.45
71960;BMP280;59832;51.146;14.024;2023-05-02T03:04:58;98190.31;;;11.41
71960;BMP280;59832;51.146;14.024;2023-05-02T03:07:27;98188.50;;;11.41
71960;BMP280;59832;51.146;14.024;2023-05-02T03:09:54;98199.38;;;11.38
71960;BMP280;59832;51.146;14.024;2023-05-02T03:12:20;98199.75;;;11.40
71960;BMP280;59832;51.146;14.024;2023-05-02T03:14:47;98206.38;;;11.45
71960;BMP280;59832;51.146;14.024;2023-05-02T03:17:13;98211.84;;;11.43
71960;BMP280;59832;51.146;14.024;2023-05-02T03:19:39;98208.94;;;11.45
71960;BMP280;59832;51.146;14.024;2023-05-02T03:22:06;98212.56;;;11.44
71960;BMP280;59832;51.146;14.024;2023-05-02T03:24:32;98217.97;;;11.39
71960;BMP280;59832;51.146;14.024;2023-05-02T03:26:58;98208.06;;;11.33
71960;BMP280;59832;51.146;14.024;2023-05-02T03:29:25;98215.72;;;11.33
71960;BMP280;59832;51.146;14.024;2023-05-02T03:31:52;98212.81;;;11.35
71960;BMP280;59832;51.146;14.024;2023-05-02T03:34:18;98220.16;;;11.40
71960;BMP280;59832;51.146;14.024;2023-05-02T03:36:47;98220.84;;;11.37
71960;BMP280;59832;51.146;14.024;2023-05-02T03:39:13;98222.00;;;11.40
71960;BMP280;59832;51.146;14.024;2023-05-02T03:41:40;98226.03;;;11.44
71960;BMP280;59832;51.146;14.024;2023-05-02T03:44:07;98228.81;;;11.35
71960;BMP280;59832;51.146;14.024;2023-05-02T03:46:34;98230.00;;;11.42
71960;BMP280;59832;51.146;14.024;2023-05-02T03:49:00;98231.78;;;11.38
71960;BMP280;59832;51.146;14.024;2023-05-02T03:51:26;98229.22;;;11.38
71960;BMP280;59832;51.146;14.024;2023-05-02T03:53:53;98236.88;;;11.38
71960;BMP280;59832;51.146;14.024;2023-05-02T03:56:19;98243.41;;;11.35
71960;BMP280;59832;51.146;14.024;2023-05-02T03:58:47;98233.59;;;11.37
71960;BMP280;59832;51.146;14.024;2023-05-02T04:01:14;98248.78;;;11.30
71960;BMP280;59832;51.146;14.024;2023-05-02T04:03:41;98236.53;;;11.39
71960;BMP280;59832;51.146;14.024;2023-05-02T04:06:08;98236.88;;;11.38
71960;BMP280;59832;51.146;14.024;2023-05-02T04:08:34;98246.13;;;11.49
71960;BMP280;59832;51.146;14.024;2023-05-02T04:11:02;98245.78;;;11.51
71960;BMP280;59832;51.146;14.024;2023-05-02T04:13:28;98252.56;;;11.40
71960;BMP280;59832;51.146;14.024;2023-05-02T04:15:55;98265.94;;;11.33
71960;BMP280;59832;51.146;14.024;2023-05-02T04:18:21;98262.25;;;11.30
71960;BMP280;59832;51.146;14.024;2023-05-02T04:20:48;98268.47;;;11.33
71960;BMP280;59832;51.146;14.024;2023-05-02T04:23:15;98273.19;;;11.31
71960;BMP280;59832;51.146;14.024;2023-05-02T04:25:52;98276.03;;;11.26
71960;BMP280;59832;51.146;14.024;2023-05-02T04:28:22;98277.19;;;11.32
71960;BMP280;59832;51.146;14.024;2023-05-02T04:30:49;98280.47;;;11.32
71960;BMP280;59832;51.146;14.024;2023-05-02T04:33:16;98282.22;;;11.28
71960;BMP280;59832;51.146;14.024;2023-05-02T04:35:43;98289.19;;;11.31
71960;BMP280;59832;51.146;14.024;2023-05-02T04:38:10;98294.75;;;11.37
71960;BMP280;59832;51.146;14.024;2023-05-02T04:40:36;98306.13;;;11.43
71960;BMP280;59832;51.146;14.024;2023-05-02T04:43:03;98298.06;;;11.41
71960;BMP280;59832;51.146;14.024;2023-05-02T04:45:29;98305.69;;;11.38
71960;BMP280;59832;51.146;14.024;2023-05-02T04:47:55;98305.94;;;11.32
71960;BMP280;59832;51.146;14.024;2023-05-02T04:50:22;98309.94;;;11.30
71960;BMP280;59832;51.146;14.024;2023-05-02T04:52:48;98316.16;;;11.32
71960;BMP280;59832;51.146;14.024;2023-05-02T04:55:15;98318.00;;;11.35
71960;BMP280;59832;51.146;14.024;2023-05-02T04:57:41;98324.16;;;11.31
71960;BMP280;59832;51.146;14.024;2023-05-02T05:00:08;98324.16;;;11.31
71960;BMP280;59832;51.146;14.024;2023-05-02T05:02:34;98325.22;;;11.30
71960;BMP280;59832;51.146;14.024;2023-05-02T05:05:01;98329.19;;;11.27
71960;BMP280;59832;51.146;14.024;2023-05-02T05:07:28;98336.53;;;11.32
71960;BMP280;59832;51.146;14.024;2023-05-02T05:09:54;98334.78;;;11.36
71960;BMP280;59832;51.146;14.024;2023-05-02T05:12:21;98335.50;;;11.37
71960;BMP280;59832;51.146;14.024;2023-05-02T05:14:47;98335.34;;;11.26
71960;BMP280;59832;51.146;14.024;2023-05-02T05:17:15;98339.66;;;11.22
71960;BMP280;59832;51.146;14.024;2023-05-02T05:19:41;98349.13;;;11.22
71960;BMP280;59832;51.146;14.024;2023-05-02T05:22:07;98361.72;;;11.15
71960;BMP280;59832;51.146;14.024;2023-05-02T05:24:35;98361.59;;;11.08
71960;BMP280;59832;51.146;14.024;2023-05-02T05:27:01;98362.75;;;11.10
71960;BMP280;59832;51.146;14.024;2023-05-02T05:29:30;98364.63;;;11.13
71960;BMP280;59832;51.146;14.024;2023-05-02T05:31:56;98366.16;;;11.18
71960;BMP280;59832;51.146;14.024;2023-05-02T05:34:23;98373.25;;;11.28
71960;BMP280;59832;51.146;14.024;2023-05-02T05:36:50;98382.00;;;11.30
71960;BMP280;59832;51.146;14.024;2023-05-02T05:39:17;98382.88;;;11.38
71960;BMP280;59832;51.146;14.024;2023-05-02T05:41:43;98367.63;;;11.42
71960;BMP280;59832;51.146;14.024;2023-05-02T05:44:09;98385.13;;;11.43
71960;BMP280;59832;51.146;14.024;2023-05-02T05:46:36;98382.75;;;11.54
71960;BMP280;59832;51.146;14.024;2023-05-02T05:49:03;98386.25;;;11.46
71960;BMP280;59832;51.146;14.024;2023-05-02T05:51:29;98382.19;;;11.64
71960;BMP280;59832;51.146;14.024;2023-05-02T05:53:56;98395.81;;;11.52
71960;BMP280;59832;51.146;14.024;2023-05-02T05:56:23;98396.03;;;11.44
71960;BMP280;59832;51.146;14.024;2023-05-02T05:58:49;98400.81;;;11.45
71960;BMP280;59832;51.146;14.024;2023-05-02T06:01:16;98403.56;;;11.59
71960;BMP280;59832;51.146;14.024;2023-05-02T06:03:42;98406.59;;;11.65
71960;BMP280;59832;51.146;14.024;2023-05-02T06:06:09;98405.38;;;11.81
71960;BMP280;59832;51.146;14.024;2023-05-02T06:08:35;98416.81;;;11.91
71960;BMP280;59832;51.146;14.024;2023-05-02T06:11:02;98413.69;;;12.01
71960;BMP280;59832;51.146;14.024;2023-05-02T06:13:28;98419.31;;;12.14
71960;BMP280;59832;51.146;14.024;2023-05-02T06:15:59;98423.13;;;12.27
71960;BMP280;59832;51.146;14.024;2023-05-02T06:18:26;98429.00;;;12.31
71960;BMP280;59832;51.146;14.024;2023-05-02T06:20:52;98430.91;;;12.34
71960;BMP280;59832;51.146;14.024;2023-05-02T06:23:19;98428.44;;;12.41
71960;BMP280;59832;51.146;14.024;2023-05-02T06:25:45;98441.53;;;12.40
71960;BMP280;59832;51.146;14.024;2023-05-02T06:28:11;98445.06;;;12.61
71960;BMP280;59832;51.146;14.024;2023-05-02T06:30:38;98449.09;;;12.62
71960;BMP280;59832;51.146;14.024;2023-05-02T06:33:04;98436.94;;;12.82
71960;BMP280;59832;51.146;14.024;2023-05-02T06:35:31;98441.22;;;12.78
71960;BMP280;59832;51.146;14.024;2023-05-02T06:37:58;98450.53;;;12.93
71960;BMP280;59832;51.146;14.024;2023-05-02T06:40:24;98462.53;;;12.89
71960;BMP280;59832;51.146;14.024;2023-05-02T06:42:50;98471.53;;;12.79
71960;BMP280;59832;51.146;14.024;2023-05-02T06:45:17;98475.00;;;12.64
71960;BMP280;59832;51.146;14.024;2023-05-02T06:47:43;98490.31;;;12.91
71960;BMP280;59832;51.146;14.024;2023-05-02T06:50:10;98484.22;;;12.72
71960;BMP280;59832;51.146;14.024;2023-05-02T06:52:36;98484.66;;;12.78
71960;BMP280;59832;51.146;14.024;2023-05-02T06:55:03;98495.34;;;12.84
71960;BMP280;59832;51.146;14.024;2023-05-02T06:57:30;98496.94;;;12.95
71960;BMP280;59832;51.146;14.024;2023-05-02T06:59:57;98506.00;;;12.93
71960;BMP280;59832;51.146;14.024;2023-05-02T07:02:24;98514.41;;;12.93
71960;BMP280;59832;51.146;14.024;2023-05-02T07:04:50;98511.13;;;12.93
71960;BMP280;59832;51.146;14.024;2023-05-02T07:07:17;98508.50;;;13.19
71960;BMP280;59832;51.146;14.024;2023-05-02T07:09:45;98511.78;;;13.19
71960;BMP280;59832;51.146;14.024;2023-05-02T07:12:12;98518.63;;;13.12
71960;BMP280;59832;51.146;14.024;2023-05-02T07:14:38;98519.47;;;13.23
71960;BMP280;59832;51.146;14.024;2023-05-02T07:17:04;98526.66;;;13.10
71960;BMP280;59832;51.146;14.024;2023-05-02T07:19:31;98524.03;;;13.03
71960;BMP280;59832;51.146;14.024;2023-05-02T07:21:58;98528.16;;;13.15
71960;BMP280;59832;51.146;14.024;2023-05-02T07:24:24;98530.44;;;13.23
71960;BMP280;59832;51.146;14.024;2023-05-02T07:26:51;98532.56;;;13.18
71960;BMP280;59832;51.146;14.024;2023-05-02T07:29:17;98539.78;;;13.09
71960;BMP280;59832;51.146;14.024;2023-05-02T07:31:44;98537.97;;;13.09
71960;BMP280;59832;51.146;14.024;2023-05-02T07:34:10;98543.38;;;13.04
71960;BMP280;59832;51.146;14.024;2023-05-02T07:36:37;98550.16;;;13.23
71960;BMP280;59832;51.146;14.024;2023-05-02T07:39:04;98549.03;;;13.54
71960;BMP280;59832;51.146;14.024;2023-05-02T07:41:30;98556.84;;;13.71
71960;BMP280;59832;51.146;14.024;2023-05-02T07:43:56;98554.75;;;13.84
71960;BMP280;59832;51.146;14.024;2023-05-02T07:46:23;98559.59;;;13.93
71960;BMP280;59832;51.146;14.024;2023-05-02T07:48:49;98566.22;;;14.01
71960;BMP280;59832;51.146;14.024;2023-05-02T07:51:16;98561.88;;;14.05
71960;BMP280;59832;51.146;14.024;2023-05-02T07:53:45;98574.81;;;13.82
71960;BMP280;59832;51.146;14.024;2023-05-02T07:56:11;98576.00;;;13.51
71960;BMP280;59832;51.146;14.024;2023-05-02T07:58:38;98581.84;;;13.48
71960;BMP280;59832;51.146;14.024;2023-05-02T08:01:04;98592.75;;;13.45
71960;BMP280;59832;51.146;14.024;2023-05-02T08:03:31;98597.53;;;13.47
71960;BMP280;59832;51.146;14.024;2023-05-02T08:05:58;98603.47;;;13.54
71960;BMP280;59832;51.146;14.024;2023-05-02T08:08:24;98604.66;;;13.64
71960;BMP280;59832;51.146;14.024;2023-05-02T08:10:51;98610.66;;;13.45
71960;BMP280;59832;51.146;14.024;2023-05-02T08:13:17;98615.78;;;13.45
71960;BMP280;59832;51.146;14.024;2023-05-02T08:15:43;98614.25;;;13.41
71960;BMP280;59832;51.146;14.024;2023-05-02T08:18:11;98626.91;;;13.30
71960;BMP280;59832;51.146;14.024;2023-05-02T08:20:37;98620.22;;;13.18
71960;BMP280;59832;51.146;14.024;2023-05-02T08:23:04;98628.06;;;13.03
71960;BMP280;59832;51.146;14.024;2023-05-02T08:25:30;98639.34;;;13.02
71960;BMP280;59832;51.146;14.024;2023-05-02T08:27:57;98644.94;;;12.85
71960;BMP280;59832;51.146;14.024;2023-05-02T08:30:23;98643.00;;;12.74
71960;BMP280;59832;51.146;14.024;2023-05-02T08:32:50;98651.69;;;12.70
71960;BMP280;59832;51.146;14.024;2023-05-02T08:35:16;98646.25;;;12.49
71960;BMP280;59832;51.146;14.024;2023-05-02T08:37:43;98654.88;;;12.63
71960;BMP280;59832;51.146;14.024;2023-05-02T08:40:10;98654.22;;;12.70
71960;BMP280;59832;51.146;14.024;2023-05-02T08:42:40;98667.59;;;12.60
71960;BMP280;59832;51.146;14.024;2023-05-02T08:45:07;98665.19;;;12.70
71960;BMP280;59832;51.146;14.024;2023-05-02T08:47:35;98676.78;;;13.17
71960;BMP280;59832;51.146;14.024;2023-05-02T08:50:02;98666.03;;;14.01
71960;BMP280;59832;51.146;14.024;2023-05-02T08:52:29;98671.75;;;14.75
71960;BMP280;59832;51.146;14.024;2023-05-02T08:54:59;98677.50;;;15.37
71960;BMP280;59832;51.146;14.024;2023-05-02T08:57:28;98672.00;;;15.28
71960;BMP280;59832;51.146;14.024;2023-05-02T08:59:55;98670.81;;;15.08
71960;BMP280;59832;51.146;14.024;2023-05-02T09:05:19;98687.56;;;14.91
71960;BMP280;59832;51.146;14.024;2023-05-02T09:07:48;98683.28;;;14.55
71960;BMP280;59832;51.146;14.024;2023-05-02T09:10:14;98680.38;;;14.60
71960;BMP280;59832;51.146;14.024;2023-05-02T09:12:41;98684.16;;;14.73
71960;BMP280;59832;51.146;14.024;2023-05-02T09:15:09;98683.47;;;14.79
71960;BMP280;59832;51.146;14.024;2023-05-02T09:17:46;98684.03;;;14.55
71960;BMP280;59832;51.146;14.024;2023-05-02T09:20:14;98680.41;;;14.56
71960;BMP280;59832;51.146;14.024;2023-05-02T09:22:48;98683.34;;;14.58
71960;BMP280;59832;51.146;14.024;2023-05-02T09:25:16;98684.88;;;14.70
71960;BMP280;59832;51.146;14.024;2023-05-02T09:27:50;98695.25;;;14.91
71960;BMP280;59832;51.146;14.024;2023-05-02T09:30:18;98692.28;;;14.86
71960;BMP280;59832;51.146;14.024;2023-05-02T09:32:47;98688.69;;;14.97
71960;BMP280;59832;51.146;14.024;2023-05-02T09:35:17;98697.41;;;15.72
71960;BMP280;59832;51.146;14.024;2023-05-02T09:37:56;98697.44;;;15.75
71960;BMP280;59832;51.146;14.024;2023-05-02T09:40:23;98696.66;;;15.68
71960;BMP280;59832;51.146;14.024;2023-05-02T09:42:51;98697.75;;;15.63
71960;BMP280;59832;51.146;14.024;2023-05-02T09:45:24;98696.00;;;16.03
71960;BMP280;59832;51.146;14.024;2023-05-02T09:47:52;98699.28;;;16.00
71960;BMP280;59832;51.146;14.024;2023-05-02T09:50:32;98704.06;;;15.87
71960;BMP280;59832;51.146;14.024;2023-05-02T09:53:04;98706.59;;;15.83
71960;BMP280;59832;51.146;14.024;2023-05-02T09:55:31;98703.31;;;15.83
71960;BMP280;59832;51.146;14.024;2023-05-02T09:57:59;98707.38;;;16.37
71960;BMP280;59832;51.146;14.024;2023-05-02T10:00:42;98707.03;;;16.24
71960;BMP280;59832;51.146;14.024;2023-05-02T10:03:09;98719.50;;;16.51
71960;BMP280;59832;51.146;14.024;2023-05-02T10:05:37;98726.47;;;16.64
71960;BMP280;59832;51.146;14.024;2023-05-02T10:08:05;98716.22;;;16.29
71960;BMP280;59832;51.146;14.024;2023-05-02T10:10:35;98719.13;;;16.13
71960;BMP280;59832;51.146;14.024;2023-05-02T10:13:03;98720.22;;;16.09
71960;BMP280;59832;51.146;14.024;2023-05-02T10:15:31;98736.00;;;15.97
71960;BMP280;59832;51.146;14.024;2023-05-02T10:17:59;98724.97;;;16.00
71960;BMP280;59832;51.146;14.024;2023-05-02T10:20:34;98731.56;;;15.97
71960;BMP280;59832;51.146;14.024;2023-05-02T10:23:03;98722.38;;;15.78
71960;BMP280;59832;51.146;14.024;2023-05-02T10:25:31;98722.72;;;15.66
71960;BMP280;59832;51.146;14.024;2023-05-02T10:27:58;98731.09;;;15.49
71960;BMP280;59832;51.146;14.024;2023-05-02T10:30:25;98733.66;;;15.49
71960;BMP280;59832;51.146;14.024;2023-05-02T10:32:52;98733.16;;;15.22
71960;BMP280;59832;51.146;14.024;2023-05-02T10:35:21;98737.31;;;15.55
71960;BMP280;59832;51.146;14.024;2023-05-02T10:37:49;98742.19;;;15.89
71960;BMP280;59832;51.146;14.024;2023-05-02T10:40:17;98740.75;;;16.23
71960;BMP280;59832;51.146;14.024;2023-05-02T10:42:46;98749.59;;;16.18
71960;BMP280;59832;51.146;14.024;2023-05-02T10:45:32;98746.63;;;15.99
71960;BMP280;59832;51.146;14.024;2023-05-02T10:50:44;98736.00;;;16.64
71960;BMP280;59832;51.146;14.024;2023-05-02T10:56:25;98745.41;;;17.23
71960;BMP280;59832;51.146;14.024;2023-05-02T10:59:27;98745.88;;;16.97
71960;BMP280;59832;51.146;14.024;2023-05-02T11:01:55;98747.03;;;16.61
71960;BMP280;59832;51.146;14.024;2023-05-02T11:04:23;98744.00;;;15.85
71960;BMP280;59832;51.146;14.024;2023-05-02T11:11:49;98749.66;;;15.25
71960;BMP280;59832;51.146;14.024;2023-05-02T11:19:26;98748.94;;;15.28
71960;BMP280;59832;51.146;14.024;2023-05-02T11:24:49;98751.56;;;15.39
71960;BMP280;59832;51.146;14.024;2023-05-02T11:32:22;98749.81;;;15.67
71960;BMP280;59832;51.146;14.024;2023-05-02T11:34:50;98756.50;;;16.00
71960;BMP280;59832;51.146;14.024;2023-05-02T11:37:19;98747.38;;;16.03
71960;BMP280;59832;51.146;14.024;2023-05-02T11:39:46;98758.75;;;16.23
71960;BMP280;59832;51.146;14.024;2023-05-02T11:42:29;98751.81;;;16.55
71960;BMP280;59832;51.146;14.024;2023-05-02T11:44:57;98748.78;;;15.90
71960;BMP280;59832;51.146;14.024;2023-05-02T11:47:25;98755.66;;;15.54
71960;BMP280;59832;51.146;14.024;2023-05-02T11:49:56;98761.03;;;15.27
71960;BMP280;59832;51.146;14.024;2023-05-02T11:52:23;98766.81;;;15.14
71960;BMP280;59832;51.146;14.024;2023-05-02T11:54:53;98765.66;;;15.04
71960;BMP280;59832;51.146;14.024;2023-05-02T11:57:21;98769.91;;;14.86
71960;BMP280;59832;51.146;14.024;2023-05-02T11:59:52;98770.03;;;15.04
71960;BMP280;59832;51.146;14.024;2023-05-02T12:02:19;98769.88;;;15.41
71960;BMP280;59832;51.146;14.024;2023-05-02T12:04:46;98765.94;;;15.54
71960;BMP280;59832;51.146;14.024;2023-05-02T12:07:13;98770.75;;;15.83
71960;BMP280;59832;51.146;14.024;2023-05-02T12:09:50;98764.94;;;15.97
71960;BMP280;59832;51.146;14.024;2023-05-02T12:12:20;98769.38;;;16.04
71960;BMP280;59832;51.146;14.024;2023-05-02T12:14:47;98769.00;;;16.05
71960;BMP280;59832;51.146;14.024;2023-05-02T12:17:14;98773.59;;;15.57
71960;BMP280;59832;51.146;14.024;2023-05-02T12:19:42;98771.69;;;15.40
71960;BMP280;59832;51.146;14.024;2023-05-02T12:22:09;98774.66;;;15.46
71960;BMP280;59832;51.146;14.024;2023-05-02T12:24:37;98778.34;;;15.45
71960;BMP280;59832;51.146;14.024;2023-05-02T12:27:07;98777.97;;;15.43
71960;BMP280;59832;51.146;14.024;2023-05-02T12:29:41;98785.53;;;15.28
71960;BMP280;59832;51.146;14.024;2023-05-02T12:32:12;98781.78;;;15.05
71960;BMP280;59832;51.146;14.024;2023-05-02T12:34:39;98783.72;;;15.22
71960;BMP280;59832;51.146;14.024;2023-05-02T12:37:07;98780.47;;;15.32
71960;BMP280;59832;51.146;14.024;2023-05-02T12:39:39;98773.13;;;15.34
71960;BMP280;59832;51.146;14.024;2023-05-02T12:42:12;98787.03;;;15.29
71960;BMP280;59832;51.146;14.024;2023-05-02T12:44:41;98784.47;;;15.29
71960;BMP280;59832;51.146;14.024;2023-05-02T12:47:12;98779.38;;;15.40
71960;BMP280;59832;51.146;14.024;2023-05-02T12:49:49;98781.25;;;15.43
71960;BMP280;59832;51.146;14.024;2023-05-02T12:52:17;98789.75;;;15.58
71960;BMP280;59832;51.146;14.024;2023-05-02T12:54:44;98785.00;;;15.63
71960;BMP280;59832;51.146;14.024;2023-05-02T12:57:24;98777.94;;;15.39
71960;BMP280;59832;51.146;14.024;2023-05-02T12:59:52;98790.09;;;15.56
71960;BMP280;59832;51.146;14.024;2023-05-02T13:02:20;98787.13;;;15.47
71960;BMP280;59832;51.146;14.024;2023-05-02T13:04:46;98791.22;;;15.55
71960;BMP280;59832;51.146;14.024;2023-05-02T13:07:13;98794.84;;;15.54
71960;BMP280;59832;51.146;14.024;2023-05-02T13:09:39;98782.00;;;15.44
71960;BMP280;59832;51.146;14.024;2023-05-02T13:12:06;98793.09;;;15.65
71960;BMP280;59832;51.146;14.024;2023-05-02T13:14:33;98782.13;;;15.79
71960;BMP280;59832;51.146;14.024;2023-05-02T13:16:59;98786.22;;;15.98
71960;BMP280;59832;51.146;14.024;2023-05-02T13:19:26;98786.97;;;16.05
71960;BMP280;59832;51.146;14.024;2023-05-02T13:21:56;98794.38;;;16.35
71960;BMP280;59832;51.146;14.024;2023-05-02T13:24:23;98780.06;;;16.41
71960;BMP280;59832;51.146;14.024;2023-05-02T13:26:50;98779.69;;;16.50
71960;BMP280;59832;51.146;14.024;2023-05-02T13:29:16;98785.94;;;16.63
71960;BMP280;59832;51.146;14.024;2023-05-02T13:31:43;98780.78;;;16.73
71960;BMP280;59832;51.146;14.024;2023-05-02T13:34:09;98774.47;;;17.13
71960;BMP280;59832;51.146;14.024;2023-05-02T13:36:36;98773.28;;;17.39
71960;BMP280;59832;51.146;14.024;2023-05-02T13:39:05;98780.22;;;17.56
71960;BMP280;59832;51.146;14.024;2023-05-02T13:41:32;98778.38;;;17.57
71960;BMP280;59832;51.146;14.024;2023-05-02T13:43:58;98777.34;;;17.40
71960;BMP280;59832;51.146;14.024;2023-05-02T13:46:25;98782.91;;;17.14
71960;BMP280;59832;51.146;14.024;2023-05-02T13:48:52;98777.44;;;16.83
71960;BMP280;59832;51.146;14.024;2023-05-02T13:51:18;98774.16;;;16.90
71960;BMP280;59832;51.146;14.024;2023-05-02T13:53:44;98780.78;;;16.91
71960;BMP280;59832;51.146;14.024;2023-05-02T13:56:11;98780.78;;;16.91
71960;BMP280;59832;51.146;14.024;2023-05-02T13:58:37;98771.59;;;16.97
71960;BMP280;59832;51.146;14.024;2023-05-02T14:01:03;98780.03;;;17.08
71960;BMP280;59832;51.146;14.024;2023-05-02T14:03:30;98778.56;;;17.07
71960;BMP280;59832;51.146;14.024;2023-05-02T14:05:57;98777.47;;;16.87
71960;BMP280;59832;51.146;14.024;2023-05-02T14:08:23;98780.75;;;16.84
71960;BMP280;59832;51.146;14.024;2023-05-02T14:10:50;98780.44;;;16.54
71960;BMP280;59832;51.146;14.024;2023-05-02T14:13:16;98776.75;;;16.30
71960;BMP280;59832;51.146;14.024;2023-05-02T14:15:42;98788.84;;;16.22
71960;BMP280;59832;51.146;14.024;2023-05-02T14:18:09;98782.22;;;16.11
71960;BMP280;59832;51.146;14.024;2023-05-02T14:20:35;98786.59;;;16.10
71960;BMP280;59832;51.146;14.024;2023-05-02T14:23:02;98789.22;;;16.14
71960;BMP280;59832;51.146;14.024;2023-05-02T14:25:31;98794.69;;;16.05
71960;BMP280;59832;51.146;14.024;2023-05-02T14:27:57;98791.31;;;15.91
71960;BMP280;59832;51.146;14.024;2023-05-02T14:30:24;98792.84;;;16.02
71960;BMP280;59832;51.146;14.024;2023-05-02T14:32:50;98800.16;;;15.93
71960;BMP280;59832;51.146;14.024;2023-05-02T14:35:17;98790.25;;;15.88
71960;BMP280;59832;51.146;14.024;2023-05-02T14:37:44;98789.47;;;15.80
71960;BMP280;59832;51.146;14.024;2023-05-02T14:40:11;98788.63;;;15.55
71960;BMP280;59832;51.146;14.024;2023-05-02T14:42:37;98795.97;;;15.53